Terminal Aerodrome Forecast
Issued by NWS Pittsburgh, PA

Home | Current Version | Previous Version | Text Only | Print | Product List | Glossary On
Versions: 1 2 3 4 5 6 7 8 9 10 11 12 13 14 15 16 17 18 19 20 21 22 23 24 25 26 27 28 29 30 31 32 33 34 35 36 37
000
FTUS41 KPBZ 251024 AAC
TAFPIT
TAF AMD
KPIT 251024Z 2510/2612 00000KT P6SM OVC140
      TEMPO 2510/2512 25008G22KT 3SM TSRA OVC040CB
     FM251300 24005KT P6SM BKN040
     FM251600 26008KT P6SM -SHRA VCTS BKN040CB
     FM260300 26003KT P6SM SCT250
     FM261100 32003KT P6SM FEW003=

USA.gov is the U.S. government's official web portal to all federal, state and local government web resources and services.